sensor_id;sensor_type;location;lat;lon;timestamp;pressure;altitude;pressure_sealevel;temperature;humidity
20043;BME280;10182;52.896;6.496;2022-09-29T00:00:24;99853.81;;;6.45;100.00
20043;BME280;10182;52.896;6.496;2022-09-29T00:05:26;99851.34;;;6.42;100.00
20043;BME280;10182;52.896;6.496;2022-09-29T00:10:28;99843.59;;;6.39;100.00
20043;BME280;10182;52.896;6.496;2022-09-29T00:15:31;99857.47;;;6.42;100.00
20043;BME280;10182;52.896;6.496;2022-09-29T00:20:33;99844.19;;;6.46;100.00
20043;BME280;10182;52.896;6.496;2022-09-29T00:25:36;99847.78;;;6.43;100.00
20043;BME280;10182;52.896;6.496;2022-09-29T00:30:39;99845.41;;;6.37;100.00
20043;BME280;10182;52.896;6.496;2022-09-29T00:35:41;99837.81;;;6.31;100.00
20043;BME280;10182;52.896;6.496;2022-09-29T00:40:42;99838.13;;;6.23;100.00
20043;BME280;10182;52.896;6.496;2022-09-29T00:45:45;99842.69;;;6.19;100.00
20043;BME280;10182;52.896;6.496;2022-09-29T00:50:50;99852.59;;;6.13;100.00
20043;BME280;10182;52.896;6.496;2022-09-29T00:55:55;99849.44;;;6.04;100.00
20043;BME280;10182;52.896;6.496;2022-09-29T01:01:02;99858.31;;;6.02;100.00
20043;BME280;10182;52.896;6.496;2022-09-29T01:06:07;99854.22;;;5.95;100.00
20043;BME280;10182;52.896;6.496;2022-09-29T01:11:12;99848.94;;;5.95;100.00
20043;BME280;10182;52.896;6.496;2022-09-29T01:16:15;99851.47;;;5.98;100.00
20043;BME280;10182;52.896;6.496;2022-09-29T01:21:24;99853.25;;;5.96;100.00
20043;BME280;10182;52.896;6.496;2022-09-29T01:27:03;99854.09;;;5.98;100.00
20043;BME280;10182;52.896;6.496;2022-09-29T01:32:15;99855.81;;;5.97;100.00
20043;BME280;10182;52.896;6.496;2022-09-29T01:37:24;99854.13;;;5.96;100.00
20043;BME280;10182;52.896;6.496;2022-09-29T01:42:34;99859.38;;;5.75;100.00
20043;BME280;10182;52.896;6.496;2022-09-29T01:47:39;99849.28;;;5.65;100.00
20043;BME280;10182;52.896;6.496;2022-09-29T01:52:45;99861.53;;;5.64;100.00
20043;BME280;10182;52.896;6.496;2022-09-29T01:57:49;99859.47;;;5.50;100.00
20043;BME280;10182;52.896;6.496;2022-09-29T02:02:57;99855.25;;;5.46;100.00
20043;BME280;10182;52.896;6.496;2022-09-29T02:08:07;99861.75;;;5.37;100.00
20043;BME280;10182;52.896;6.496;2022-09-29T02:13:11;99859.06;;;5.39;100.00
20043;BME280;10182;52.896;6.496;2022-09-29T02:18:20;99859.13;;;5.37;100.00
20043;BME280;10182;52.896;6.496;2022-09-29T02:23:22;99861.81;;;5.36;100.00
20043;BME280;10182;52.896;6.496;2022-09-29T02:28:24;99861.81;;;5.36;100.00
20043;BME280;10182;52.896;6.496;2022-09-29T02:33:27;99856.78;;;5.30;100.00
20043;BME280;10182;52.896;6.496;2022-09-29T02:38:38;99866.78;;;5.20;100.00
20043;BME280;10182;52.896;6.496;2022-09-29T02:49:29;99862.16;;;5.03;100.00
20043;BME280;10182;52.896;6.496;2022-09-29T02:54:48;99865.72;;;5.02;100.00
20043;BME280;10182;52.896;6.496;2022-09-29T02:59:57;99869.19;;;5.02;100.00
20043;BME280;10182;52.896;6.496;2022-09-29T03:05:09;99864.47;;;4.88;100.00
20043;BME280;10182;52.896;6.496;2022-09-29T03:10:14;99870.16;;;4.76;100.00
20043;BME280;10182;52.896;6.496;2022-09-29T03:15:16;99869.72;;;4.65;100.00
20043;BME280;10182;52.896;6.496;2022-09-29T03:20:19;99875.78;;;4.65;100.00
20043;BME280;10182;52.896;6.496;2022-09-29T03:25:21;99873.72;;;4.50;100.00
20043;BME280;10182;52.896;6.496;2022-09-29T03:30:23;99869.94;;;4.33;100.00
20043;BME280;10182;52.896;6.496;2022-09-29T03:35:26;99878.09;;;4.24;100.00
20043;BME280;10182;52.896;6.496;2022-09-29T03:40:29;99890.34;;;4.23;100.00
20043;BME280;10182;52.896;6.496;2022-09-29T03:45:30;99889.31;;;4.29;100.00
20043;BME280;10182;52.896;6.496;2022-09-29T03:50:33;99895.28;;;4.33;100.00
20043;BME280;10182;52.896;6.496;2022-09-29T03:55:35;99901.16;;;4.39;100.00
20043;BME280;10182;52.896;6.496;2022-09-29T04:00:37;99893.47;;;4.35;100.00
20043;BME280;10182;52.896;6.496;2022-09-29T04:05:40;99899.69;;;4.32;100.00
20043;BME280;10182;52.896;6.496;2022-09-29T04:10:42;99892.81;;;4.28;100.00
20043;BME280;10182;52.896;6.496;2022-09-29T04:15:43;99900.03;;;4.21;100.00
20043;BME280;10182;52.896;6.496;2022-09-29T04:20:46;99912.50;;;4.15;100.00
20043;BME280;10182;52.896;6.496;2022-09-29T04:25:48;99911.84;;;4.08;100.00
20043;BME280;10182;52.896;6.496;2022-09-29T04:30:50;99916.31;;;4.04;100.00
20043;BME280;10182;52.896;6.496;2022-09-29T04:35:53;99915.91;;;3.90;100.00
20043;BME280;10182;52.896;6.496;2022-09-29T04:40:55;99916.97;;;3.84;100.00
20043;BME280;10182;52.896;6.496;2022-09-29T04:46:03;99914.41;;;3.83;100.00
20043;BME280;10182;52.896;6.496;2022-09-29T04:51:08;99917.03;;;3.83;100.00
20043;BME280;10182;52.896;6.496;2022-09-29T04:56:10;99917.97;;;3.80;100.00
20043;BME280;10182;52.896;6.496;2022-09-29T05:01:12;99917.31;;;3.73;100.00
20043;BME280;10182;52.896;6.496;2022-09-29T05:06:15;99922.50;;;3.75;100.00
20043;BME280;10182;52.896;6.496;2022-09-29T05:11:17;99917.97;;;3.80;100.00
20043;BME280;10182;52.896;6.496;2022-09-29T05:16:19;99921.66;;;3.75;100.00
20043;BME280;10182;52.896;6.496;2022-09-29T05:21:22;99920.00;;;3.72;100.00
20043;BME280;10182;52.896;6.496;2022-09-29T05:26:24;99926.19;;;3.69;100.00
20043;BME280;10182;52.896;6.496;2022-09-29T05:31:26;99925.41;;;3.66;100.00
20043;BME280;10182;52.896;6.496;2022-09-29T05:36:29;99935.09;;;3.64;100.00
20043;BME280;10182;52.896;6.496;2022-09-29T05:41:31;99941.06;;;3.67;100.00
20043;BME280;10182;52.896;6.496;2022-09-29T05:46:34;99944.84;;;3.59;100.00
20043;BME280;10182;52.896;6.496;2022-09-29T05:51:37;99936.94;;;3.60;100.00
20043;BME280;10182;52.896;6.496;2022-09-29T05:56:39;99944.63;;;3.65;100.00
20043;BME280;10182;52.896;6.496;2022-09-29T06:01:40;99956.13;;;3.61;100.00
20043;BME280;10182;52.896;6.496;2022-09-29T06:06:43;99962.03;;;3.67;100.00
20043;BME280;10182;52.896;6.496;2022-09-29T06:11:46;99966.97;;;3.77;100.00
20043;BME280;10182;52.896;6.496;2022-09-29T06:16:48;99964.22;;;3.81;100.00
20043;BME280;10182;52.896;6.496;2022-09-29T06:21:51;99968.31;;;3.90;100.00
20043;BME280;10182;52.896;6.496;2022-09-29T06:26:53;99973.41;;;3.95;100.00
20043;BME280;10182;52.896;6.496;2022-09-29T06:31:55;99973.91;;;4.07;100.00
20043;BME280;10182;52.896;6.496;2022-09-29T06:36:58;99980.50;;;4.19;100.00
20043;BME280;10182;52.896;6.496;2022-09-29T06:42:17;99991.50;;;4.31;100.00
20043;BME280;10182;52.896;6.496;2022-09-29T06:47:18;99991.78;;;4.21;100.00
20043;BME280;10182;52.896;6.496;2022-09-29T06:52:21;100001.66;;;4.42;100.00
20043;BME280;10182;52.896;6.496;2022-09-29T06:57:23;100003.50;;;4.65;100.00
20043;BME280;10182;52.896;6.496;2022-09-29T07:02:26;100014.78;;;4.92;100.00
20043;BME280;10182;52.896;6.496;2022-09-29T07:07:29;100020.69;;;5.24;100.00
20043;BME280;10182;52.896;6.496;2022-09-29T07:12:31;100019.78;;;5.49;100.00
20043;BME280;10182;52.896;6.496;2022-09-29T07:17:32;100030.41;;;5.69;100.00
20043;BME280;10182;52.896;6.496;2022-09-29T07:22:35;100030.69;;;5.85;100.00
20043;BME280;10182;52.896;6.496;2022-09-29T07:27:37;100039.66;;;6.03;100.00
20043;BME280;10182;52.896;6.496;2022-09-29T07:32:39;100044.13;;;6.23;100.00
20043;BME280;10182;52.896;6.496;2022-09-29T07:37:49;100043.59;;;6.37;100.00
20043;BME280;10182;52.896;6.496;2022-09-29T07:42:51;100048.06;;;6.56;100.00
20043;BME280;10182;52.896;6.496;2022-09-29T07:47:55;100051.75;;;6.74;100.00
20043;BME280;10182;52.896;6.496;2022-09-29T07:52:58;100063.59;;;6.84;100.00
20043;BME280;10182;52.896;6.496;2022-09-29T07:58:00;100070.13;;;6.96;100.00
20043;BME280;10182;52.896;6.496;2022-09-29T08:03:03;100066.44;;;7.21;100.00
20043;BME280;10182;52.896;6.496;2022-09-29T08:08:07;100071.53;;;7.44;100.00
20043;BME280;10182;52.896;6.496;2022-09-29T08:13:09;100072.97;;;7.72;100.00
20043;BME280;10182;52.896;6.496;2022-09-29T08:18:10;100076.22;;;7.96;100.00
20043;BME280;10182;52.896;6.496;2022-09-29T08:23:13;100075.00;;;8.23;100.00
20043;BME280;10182;52.896;6.496;2022-09-29T08:28:15;100080.94;;;8.47;100.00
20043;BME280;10182;52.896;6.496;2022-09-29T08:33:17;100081.22;;;8.60;100.00
20043;BME280;10182;52.896;6.496;2022-09-29T08:38:20;100083.63;;;8.82;100.00
20043;BME280;10182;52.896;6.496;2022-09-29T08:43:24;100096.25;;;9.12;100.00
20043;BME280;10182;52.896;6.496;2022-09-29T08:48:32;100097.69;;;9.35;100.00
20043;BME280;10182;52.896;6.496;2022-09-29T08:53:42;100104.75;;;9.52;100.00
20043;BME280;10182;52.896;6.496;2022-09-29T08:58:45;100106.34;;;9.72;100.00
20043;BME280;10182;52.896;6.496;2022-09-29T09:04:11;100105.28;;;9.92;100.00
20043;BME280;10182;52.896;6.496;2022-09-29T09:09:33;100113.47;;;10.20;100.00
20043;BME280;10182;52.896;6.496;2022-09-29T09:14:49;100111.13;;;10.47;100.00
20043;BME280;10182;52.896;6.496;2022-09-29T09:20:08;100118.88;;;10.66;100.00
20043;BME280;10182;52.896;6.496;2022-09-29T09:25:19;100121.53;;;10.66;100.00
20043;BME280;10182;52.896;6.496;2022-09-29T09:30:26;100127.00;;;10.79;100.00
20043;BME280;10182;52.896;6.496;2022-09-29T09:35:34;100112.94;;;10.93;100.00
20043;BME280;10182;52.896;6.496;2022-09-29T09:40:39;100123.03;;;11.02;100.00
20043;BME280;10182;52.896;6.496;2022-09-29T09:45:47;100124.00;;;11.15;100.00
20043;BME280;10182;52.896;6.496;2022-09-29T09:50:50;100125.16;;;11.26;99.54
20043;BME280;10182;52.896;6.496;2022-09-29T09:56:00;100124.44;;;11.38;98.38
20043;BME280;10182;52.896;6.496;2022-09-29T10:01:07;100124.75;;;11.62;99.14
20043;BME280;10182;52.896;6.496;2022-09-29T10:06:11;100128.56;;;11.87;94.36
20043;BME280;10182;52.896;6.496;2022-09-29T10:11:23;100118.88;;;11.86;93.27
20043;BME280;10182;52.896;6.496;2022-09-29T10:16:30;100124.19;;;11.86;90.46
20043;BME280;10182;52.896;6.496;2022-09-29T10:21:37;100129.53;;;12.00;89.44
20043;BME280;10182;52.896;6.496;2022-09-29T10:26:42;100134.72;;;12.16;90.85
20043;BME280;10182;52.896;6.496;2022-09-29T10:31:59;100129.03;;;12.23;87.73
20043;BME280;10182;52.896;6.496;2022-09-29T10:37:04;100138.88;;;12.35;87.99
20043;BME280;10182;52.896;6.496;2022-09-29T10:42:20;100139.25;;;12.43;86.35
20043;BME280;10182;52.896;6.496;2022-09-29T10:47:22;100139.00;;;12.61;87.48
20043;BME280;10182;52.896;6.496;2022-09-29T10:52:25;100143.03;;;12.53;83.40
20043;BME280;10182;52.896;6.496;2022-09-29T10:57:31;100142.88;;;12.69;84.48
20043;BME280;10182;52.896;6.496;2022-09-29T11:02:36;100147.28;;;12.83;82.59
20043;BME280;10182;52.896;6.496;2022-09-29T11:07:42;100150.09;;;12.95;80.22
20043;BME280;10182;52.896;6.496;2022-09-29T11:12:46;100155.19;;;12.98;82.85
20043;BME280;10182;52.896;6.496;2022-09-29T11:17:50;100166.06;;;13.08;83.91
20043;BME280;10182;52.896;6.496;2022-09-29T11:23:08;100161.44;;;13.24;83.06
20043;BME280;10182;52.896;6.496;2022-09-29T11:28:28;100168.69;;;13.35;80.13
20043;BME280;10182;52.896;6.496;2022-09-29T11:33:39;100172.38;;;13.47;79.13
20043;BME280;10182;52.896;6.496;2022-09-29T11:38:56;100169.03;;;13.30;78.30
20043;BME280;10182;52.896;6.496;2022-09-29T11:44:16;100170.56;;;13.47;79.40
20043;BME280;10182;52.896;6.496;2022-09-29T11:49:38;100175.47;;;13.53;76.88
20043;BME280;10182;52.896;6.496;2022-09-29T11:54:52;100179.00;;;13.67;77.47
20043;BME280;10182;52.896;6.496;2022-09-29T12:00:04;100176.34;;;13.80;76.55
20043;BME280;10182;52.896;6.496;2022-09-29T12:05:16;100183.06;;;13.73;76.33
20043;BME280;10182;52.896;6.496;2022-09-29T12:10:36;100186.25;;;13.91;75.70
20043;BME280;10182;52.896;6.496;2022-09-29T12:15:50;100192.13;;;13.96;74.87
20043;BME280;10182;52.896;6.496;2022-09-29T12:20:53;100191.56;;;14.16;75.69
20043;BME280;10182;52.896;6.496;2022-09-29T12:26:02;100183.25;;;14.21;73.09
20043;BME280;10182;52.896;6.496;2022-09-29T12:31:09;100182.50;;;14.19;73.54
20043;BME280;10182;52.896;6.496;2022-09-29T12:36:19;100177.38;;;14.29;72.62
20043;BME280;10182;52.896;6.496;2022-09-29T12:41:48;100177.16;;;14.32;73.16
20043;BME280;10182;52.896;6.496;2022-09-29T12:46:57;100172.19;;;14.51;72.90
20043;BME280;10182;52.896;6.496;2022-09-29T12:52:09;100180.41;;;14.48;71.90
20043;BME280;10182;52.896;6.496;2022-09-29T12:57:15;100190.38;;;13.82;71.84
20043;BME280;10182;52.896;6.496;2022-09-29T13:08:18;100187.72;;;13.69;71.83
20043;BME280;10182;52.896;6.496;2022-09-29T13:13:36;100181.84;;;13.64;72.34
20043;BME280;10182;52.896;6.496;2022-09-29T13:19:10;100182.41;;;13.69;72.31
20043;BME280;10182;52.896;6.496;2022-09-29T13:24:22;100188.91;;;14.03;68.69
20043;BME280;10182;52.896;6.496;2022-09-29T13:29:39;100186.34;;;14.15;67.43
20043;BME280;10182;52.896;6.496;2022-09-29T13:34:52;100189.94;;;14.27;68.49
20043;BME280;10182;52.896;6.496;2022-09-29T13:39:57;100189.47;;;14.46;68.86
20043;BME280;10182;52.896;6.496;2022-09-29T13:45:36;100191.06;;;14.61;67.42
20043;BME280;10182;52.896;6.496;2022-09-29T13:50:43;100187.84;;;14.69;66.01
20043;BME280;10182;52.896;6.496;2022-09-29T13:55:49;100190.97;;;14.87;66.48
20043;BME280;10182;52.896;6.496;2022-09-29T14:00:52;100196.84;;;14.92;67.30
20043;BME280;10182;52.896;6.496;2022-09-29T14:06:05;100200.94;;;14.72;66.49
20043;BME280;10182;52.896;6.496;2022-09-29T14:11:19;100206.75;;;14.53;66.31
20043;BME280;10182;52.896;6.496;2022-09-29T14:21:53;100216.06;;;14.21;67.12
20043;BME280;10182;52.896;6.496;2022-09-29T14:27:16;100215.72;;;14.13;69.34
20043;BME280;10182;52.896;6.496;2022-09-29T14:32:22;100220.22;;;14.26;70.44
20043;BME280;10182;52.896;6.496;2022-09-29T14:37:30;100222.78;;;14.27;68.17
20043;BME280;10182;52.896;6.496;2022-09-29T14:42:32;100222.22;;;14.35;69.03
20043;BME280;10182;52.896;6.496;2022-09-29T14:47:37;100229.59;;;14.31;70.99
20043;BME280;10182;52.896;6.496;2022-09-29T14:53:38;100233.41;;;14.14;72.30
20043;BME280;10182;52.896;6.496;2022-09-29T14:58:51;100236.41;;;13.71;74.42
20043;BME280;10182;52.896;6.496;2022-09-29T15:04:04;100249.66;;;13.31;78.62
20043;BME280;10182;52.896;6.496;2022-09-29T15:09:15;100257.47;;;12.78;81.81
20043;BME280;10182;52.896;6.496;2022-09-29T15:14:24;100273.56;;;12.33;84.88
20043;BME280;10182;52.896;6.496;2022-09-29T15:19:41;100278.84;;;12.18;86.57
20043;BME280;10182;52.896;6.496;2022-09-29T15:24:59;100287.50;;;11.92;89.22
20043;BME280;10182;52.896;6.496;2022-09-29T15:30:12;100288.63;;;11.88;90.73
20043;BME280;10182;52.896;6.496;2022-09-29T15:35:21;100285.22;;;11.85;91.97
20043;BME280;10182;52.896;6.496;2022-09-29T15:40:25;100282.66;;;11.84;92.95
20043;BME280;10182;52.896;6.496;2022-09-29T15:45:30;100284.13;;;12.04;93.50
20043;BME280;10182;52.896;6.496;2022-09-29T15:50:40;100293.91;;;11.88;88.62
20043;BME280;10182;52.896;6.496;2022-09-29T15:55:44;100287.25;;;11.96;88.85
20043;BME280;10182;52.896;6.496;2022-09-29T16:00:46;100296.66;;;12.02;90.65
20043;BME280;10182;52.896;6.496;2022-09-29T16:05:55;100316.38;;;11.98;92.70
20043;BME280;10182;52.896;6.496;2022-09-29T16:11:02;100321.88;;;11.95;94.03
20043;BME280;10182;52.896;6.496;2022-09-29T16:16:09;100328.59;;;11.84;94.59
20043;BME280;10182;52.896;6.496;2022-09-29T16:21:13;100328.53;;;11.86;95.14
20043;BME280;10182;52.896;6.496;2022-09-29T16:26:32;100329.28;;;11.88;95.53
20043;BME280;10182;52.896;6.496;2022-09-29T16:31:37;100338.63;;;11.79;94.43
20043;BME280;10182;52.896;6.496;2022-09-29T16:36:39;100343.72;;;11.68;93.54
20043;BME280;10182;52.896;6.496;2022-09-29T16:41:47;100352.97;;;11.61;93.19
20043;BME280;10182;52.896;6.496;2022-09-29T16:46:51;100364.72;;;11.57;93.21
20043;BME280;10182;52.896;6.496;2022-09-29T16:51:56;100365.03;;;11.50;92.51
20043;BME280;10182;52.896;6.496;2022-09-29T16:57:16;100371.38;;;11.48;92.87
20043;BME280;10182;52.896;6.496;2022-09-29T17:02:19;100378.47;;;11.47;92.98
20043;BME280;10182;52.896;6.496;2022-09-29T17:07:23;100381.13;;;11.47;92.91
20043;BME280;10182;52.896;6.496;2022-09-29T17:12:28;100386.53;;;11.46;94.76
20043;BME280;10182;52.896;6.496;2022-09-29T17:17:30;100389.59;;;11.38;95.14
20043;BME280;10182;52.896;6.496;2022-09-29T17:22:34;100396.38;;;11.28;96.41
20043;BME280;10182;52.896;6.496;2022-09-29T17:27:38;100401.28;;;11.18;96.62
20043;BME280;10182;52.896;6.496;2022-09-29T17:32:58;100407.63;;;11.15;98.29
20043;BME280;10182;52.896;6.496;2022-09-29T17:38:00;100398.38;;;11.07;98.26
20043;BME280;10182;52.896;6.496;2022-09-29T17:43:03;100404.25;;;10.96;98.55
20043;BME280;10182;52.896;6.496;2022-09-29T17:48:05;100405.53;;;10.89;98.88
20043;BME280;10182;52.896;6.496;2022-09-29T17:53:07;100410.91;;;10.87;99.65
20043;BME280;10182;52.896;6.496;2022-09-29T17:58:13;100408.25;;;10.87;100.00
20043;BME280;10182;52.896;6.496;2022-09-29T18:03:17;100411.94;;;10.84;100.00
20043;BME280;10182;52.896;6.496;2022-09-29T18:08:19;100415.59;;;10.82;100.00
20043;BME280;10182;52.896;6.496;2022-09-29T18:13:24;100412.19;;;10.80;100.00
20043;BME280;10182;52.896;6.496;2022-09-29T18:18:27;100420.19;;;10.78;100.00
20043;BME280;10182;52.896;6.496;2022-09-29T18:23:28;100419.59;;;10.73;100.00
20043;BME280;10182;52.896;6.496;2022-09-29T18:28:32;100427.69;;;10.70;100.00
20043;BME280;10182;52.896;6.496;2022-09-29T18:33:34;100432.28;;;10.66;100.00
20043;BME280;10182;52.896;6.496;2022-09-29T18:38:36;100443.91;;;10.64;100.00
20043;BME280;10182;52.896;6.496;2022-09-29T18:43:39;100440.63;;;10.59;100.00
20043;BME280;10182;52.896;6.496;2022-09-29T18:48:40;100445.38;;;10.52;100.00
20043;BME280;10182;52.896;6.496;2022-09-29T18:53:43;100451.84;;;10.46;100.00
20043;BME280;10182;52.896;6.496;2022-09-29T18:58:46;100451.00;;;10.46;100.00
20043;BME280;10182;52.896;6.496;2022-09-29T19:03:47;100449.03;;;10.49;100.00
20043;BME280;10182;52.896;6.496;2022-09-29T19:08:49;100455.28;;;10.48;100.00
20043;BME280;10182;52.896;6.496;2022-09-29T19:13:52;100465.88;;;10.48;100.00
20043;BME280;10182;52.896;6.496;2022-09-29T19:18:57;100454.50;;;10.46;100.00
20043;BME280;10182;52.896;6.496;2022-09-29T19:23:59;100470.00;;;10.37;100.00
20043;BME280;10182;52.896;6.496;2022-09-29T19:29:02;100479.06;;;10.31;100.00
20043;BME280;10182;52.896;6.496;2022-09-29T19:34:04;100481.81;;;10.29;100.00
20043;BME280;10182;52.896;6.496;2022-09-29T19:39:05;100494.16;;;10.29;100.00
20043;BME280;10182;52.896;6.496;2022-09-29T19:44:10;100492.59;;;10.25;100.00
20043;BME280;10182;52.896;6.496;2022-09-29T19:49:12;100499.69;;;10.24;100.00
20043;BME280;10182;52.896;6.496;2022-09-29T19:54:15;100500.63;;;10.23;100.00
20043;BME280;10182;52.896;6.496;2022-09-29T19:59:21;100505.16;;;10.21;100.00
20043;BME280;10182;52.896;6.496;2022-09-29T20:04:26;100511.28;;;10.22;100.00
20043;BME280;10182;52.896;6.496;2022-09-29T20:09:28;100521.06;;;10.20;100.00
20043;BME280;10182;52.896;6.496;2022-09-29T20:14:32;100519.38;;;10.19;100.00
20043;BME280;10182;52.896;6.496;2022-09-29T20:19:37;100527.44;;;10.15;100.00
20043;BME280;10182;52.896;6.496;2022-09-29T20:24:38;100530.19;;;10.14;100.00
20043;BME280;10182;52.896;6.496;2022-09-29T20:29:41;100546.94;;;10.14;100.00
20043;BME280;10182;52.896;6.496;2022-09-29T20:34:44;100548.56;;;10.17;100.00
20043;BME280;10182;52.896;6.496;2022-09-29T20:39:46;100560.00;;;10.18;100.00
20043;BME280;10182;52.896;6.496;2022-09-29T20:44:50;100555.66;;;10.16;100.00
20043;BME280;10182;52.896;6.496;2022-09-29T20:49:55;100555.66;;;10.16;100.00
20043;BME280;10182;52.896;6.496;2022-09-29T20:54:57;100562.81;;;10.14;100.00
20043;BME280;10182;52.896;6.496;2022-09-29T21:00:01;100570.25;;;10.06;100.00
20043;BME280;10182;52.896;6.496;2022-09-29T21:05:04;100567.69;;;10.05;100.00
20043;BME280;10182;52.896;6.496;2022-09-29T21:10:06;100558.94;;;10.03;100.00
20043;BME280;10182;52.896;6.496;2022-09-29T21:15:10;100565.31;;;9.98;100.00
20043;BME280;10182;52.896;6.496;2022-09-29T21:20:13;100569.38;;;9.87;100.00
20043;BME280;10182;52.896;6.496;2022-09-29T21:25:15;100576.97;;;9.75;100.00
20043;BME280;10182;52.896;6.496;2022-09-29T21:30:18;100580.69;;;9.71;100.00
20043;BME280;10182;52.896;6.496;2022-09-29T21:35:19;100588.97;;;9.63;100.00
20043;BME280;10182;52.896;6.496;2022-09-29T21:40:21;100586.59;;;9.57;100.00
20043;BME280;10182;52.896;6.496;2022-09-29T21:45:25;100592.94;;;9.53;100.00
20043;BME280;10182;52.896;6.496;2022-09-29T21:50:27;100588.91;;;9.44;100.00
20043;BME280;10182;52.896;6.496;2022-09-29T21:55:28;100586.41;;;9.41;100.00
20043;BME280;10182;52.896;6.496;2022-09-29T22:00:31;100591.03;;;9.36;100.00
20043;BME280;10182;52.896;6.496;2022-09-29T22:05:33;100602.81;;;9.29;100.00
20043;BME280;10182;52.896;6.496;2022-09-29T22:10:35;100593.53;;;9.20;100.00
20043;BME280;10182;52.896;6.496;2022-09-29T22:15:38;100615.78;;;9.14;100.00
20043;BME280;10182;52.896;6.496;2022-09-29T22:20:39;100607.50;;;9.02;100.00
20043;BME280;10182;52.896;6.496;2022-09-29T22:25:43;100609.47;;;8.96;100.00
20043;BME280;10182;52.896;6.496;2022-09-29T22:30:46;100611.78;;;8.84;100.00
20043;BME280;10182;52.896;6.496;2022-09-29T22:35:54;100609.84;;;8.67;100.00
20043;BME280;10182;52.896;6.496;2022-09-29T22:40:56;100605.09;;;8.53;100.00
20043;BME280;10182;52.896;6.496;2022-09-29T22:45:59;100609.53;;;8.52;100.00
20043;BME280;10182;52.896;6.496;2022-09-29T22:51:02;100609.06;;;8.41;100.00
20043;BME280;10182;52.896;6.496;2022-09-29T22:56:08;100607.47;;;8.37;100.00
20043;BME280;10182;52.896;6.496;2022-09-29T23:01:14;100606.72;;;8.33;100.00
20043;BME280;10182;52.896;6.496;2022-09-29T23:06:16;100613.53;;;8.17;100.00
20043;BME280;10182;52.896;6.496;2022-09-29T23:11:19;100611.94;;;8.12;100.00
20043;BME280;10182;52.896;6.496;2022-09-29T23:16:22;100605.97;;;8.07;100.00
20043;BME280;10182;52.896;6.496;2022-09-29T23:21:24;100614.97;;;8.02;100.00
20043;BME280;10182;52.896;6.496;2022-09-29T23:26:27;100615.03;;;8.00;100.00
20043;BME280;10182;52.896;6.496;2022-09-29T23:31:30;100619.56;;;7.96;100.00
20043;BME280;10182;52.896;6.496;2022-09-29T23:36:32;100626.50;;;7.99;100.00
20043;BME280;10182;52.896;6.496;2022-09-29T23:41:34;100635.22;;;8.01;100.00
20043;BME280;10182;52.896;6.496;2022-09-29T23:46:38;100639.75;;;7.97;100.00
20043;BME280;10182;52.896;6.496;2022-09-29T23:51:41;100637.28;;;7.93;100.00
20043;BME280;10182;52.896;6.496;2022-09-29T23:56:43;100634.59;;;7.94;100.00
